Time;durP1;ratioP1;P1;durP2;ratioP2;P2;SDS_P1;SDS_P2;PMS_P1;PMS_P2;Temp;Humidity;BMP_temperature;BMP_pressure;BME280_temperature;BME280_humidity;BME280_pressure;Samples;Min_cycle;Max_cycle;Signal;HPM_P1;HPM_P2
2021/10/14 00:02:09;;;;;;;15.13;5.15;;;;;;;;;;5029399;28;20055;-64
2021/10/14 00:04:35;;;;;;;13.55;5.00;;;;;;;;;;5034548;28;20328;-64
2021/10/14 00:07:02;;;;;;;13.25;4.55;;;;;;;;;;5019878;28;20048;-64
2021/10/14 00:09:28;;;;;;;9.80;4.78;;;;;;;;;;5034882;28;20477;-64
2021/10/14 00:11:55;;;;;;;12.55;4.60;;;;;;;;;;5027354;28;20041;-65
2021/10/14 00:14:21;;;;;;;13.18;4.93;;;;;;;;;;5024311;28;20414;-64
2021/10/14 00:16:47;;;;;;;11.18;5.25;;;;;;;;;;5024529;28;20056;-64
2021/10/14 00:19:15;;;;;;;12.88;4.95;;;;;;;;;;5017391;28;20061;-64
2021/10/14 00:21:41;;;;;;;11.93;4.90;;;;;;;;;;5029564;28;20474;-64
2021/10/14 00:24:07;;;;;;;15.23;5.47;;;;;;;;;;5027006;28;20052;-64
2021/10/14 00:26:34;;;;;;;10.02;5.47;;;;;;;;;;5029087;28;20048;-64
2021/10/14 00:29:00;;;;;;;12.48;5.95;;;;;;;;;;5032913;28;20049;-64
2021/10/14 00:31:28;;;;;;;12.98;5.70;;;;;;;;;;5011635;28;20152;-64
2021/10/14 00:33:55;;;;;;;10.82;5.72;;;;;;;;;;5029762;28;20060;-64
2021/10/14 00:36:21;;;;;;;14.88;5.72;;;;;;;;;;5028266;28;20053;-64
2021/10/14 00:38:48;;;;;;;13.98;6.75;;;;;;;;;;5034199;28;20141;-64
2021/10/14 00:41:15;;;;;;;16.10;6.97;;;;;;;;;;5021738;28;20055;-64
2021/10/14 00:43:43;;;;;;;12.05;6.82;;;;;;;;;;5034693;28;20085;-64
2021/10/14 00:46:16;;;;;;;19.63;7.22;;;;;;;;;;5026522;28;20505;-64
2021/10/14 00:48:43;;;;;;;19.48;8.27;;;;;;;;;;5023342;28;20064;-64
2021/10/14 00:51:09;;;;;;;16.50;7.38;;;;;;;;;;5022791;28;20488;-64
2021/10/14 00:53:39;;;;;;;13.73;7.57;;;;;;;;;;5026211;28;20071;-64
2021/10/14 00:56:07;;;;;;;20.35;8.05;;;;;;;;;;5022885;28;20343;-64
2021/10/14 00:58:34;;;;;;;18.98;8.43;;;;;;;;;;5028234;28;20225;-64
2021/10/14 01:01:01;;;;;;;18.77;8.88;;;;;;;;;;5018873;28;20237;-64
2021/10/14 01:03:28;;;;;;;16.60;9.20;;;;;;;;;;5028291;28;20509;-65
2021/10/14 01:05:54;;;;;;;20.05;10.07;;;;;;;;;;5021464;28;20468;-65
2021/10/14 01:08:21;;;;;;;15.77;8.68;;;;;;;;;;5036790;28;20045;-65
2021/10/14 01:10:47;;;;;;;18.02;8.75;;;;;;;;;;5023105;28;20053;-65
2021/10/14 01:13:15;;;;;;;19.67;9.23;;;;;;;;;;5032605;28;20087;-65
2021/10/14 01:15:41;;;;;;;22.73;10.53;;;;;;;;;;5012921;28;20045;-65
2021/10/14 01:18:08;;;;;;;19.05;10.57;;;;;;;;;;5033405;28;20288;-65
2021/10/14 01:20:34;;;;;;;27.83;13.68;;;;;;;;;;5023131;28;20056;-64
2021/10/14 01:23:00;;;;;;;19.63;10.55;;;;;;;;;;5028603;28;20044;-64
2021/10/14 01:25:27;;;;;;;20.17;10.68;;;;;;;;;;5031289;28;20041;-65
2021/10/14 01:27:53;;;;;;;20.30;12.15;;;;;;;;;;5035950;28;20056;-65
2021/10/14 01:30:19;;;;;;;17.20;10.35;;;;;;;;;;5033449;28;20056;-65
2021/10/14 01:32:49;;;;;;;19.50;11.13;;;;;;;;;;5018853;28;20156;-66
2021/10/14 01:35:16;;;;;;;21.45;11.95;;;;;;;;;;5035908;28;20348;-64
2021/10/14 01:37:42;;;;;;;24.38;12.52;;;;;;;;;;5039101;28;20052;-65
2021/10/14 01:40:09;;;;;;;29.60;12.38;;;;;;;;;;5023422;28;20049;-65
2021/10/14 01:42:35;;;;;;;22.95;12.60;;;;;;;;;;5039149;28;20040;-65
2021/10/14 01:45:03;;;;;;;23.55;13.15;;;;;;;;;;5024268;28;20046;-65
2021/10/14 01:47:30;;;;;;;30.17;13.87;;;;;;;;;;5036654;28;20053;-65
2021/10/14 01:49:56;;;;;;;24.90;13.25;;;;;;;;;;5022175;28;20080;-64
2021/10/14 01:52:23;;;;;;;23.75;13.27;;;;;;;;;;5035725;28;20061;-65
2021/10/14 01:54:49;;;;;;;21.42;12.05;;;;;;;;;;5023335;28;20126;-64
2021/10/14 01:57:15;;;;;;;28.70;13.85;;;;;;;;;;5029407;28;20075;-65
2021/10/14 01:59:42;;;;;;;27.58;13.85;;;;;;;;;;5026216;28;20062;-65
2021/10/14 02:02:08;;;;;;;25.63;13.93;;;;;;;;;;5021814;28;20053;-65
2021/10/14 02:04:35;;;;;;;24.60;13.80;;;;;;;;;;5028593;28;20049;-65
2021/10/14 02:07:01;;;;;;;30.75;15.52;;;;;;;;;;5023795;28;20461;-64
2021/10/14 02:09:27;;;;;;;27.05;13.13;;;;;;;;;;5025086;28;20056;-65
2021/10/14 02:11:54;;;;;;;29.23;14.65;;;;;;;;;;5035335;28;20405;-64
2021/10/14 02:14:20;;;;;;;32.35;15.25;;;;;;;;;;5021167;28;20056;-64
2021/10/14 02:16:46;;;;;;;29.33;13.20;;;;;;;;;;5036559;28;20429;-65
2021/10/14 02:19:13;;;;;;;30.88;15.88;;;;;;;;;;5020853;28;20132;-65
2021/10/14 02:21:39;;;;;;;34.05;15.80;;;;;;;;;;5023782;28;20049;-65
2021/10/14 02:24:06;;;;;;;33.20;16.20;;;;;;;;;;5030029;28;20045;-65
2021/10/14 02:26:32;;;;;;;38.58;17.80;;;;;;;;;;5031227;28;20421;-65
2021/10/14 02:28:58;;;;;;;35.65;15.45;;;;;;;;;;5038561;28;20049;-65
2021/10/14 02:31:25;;;;;;;36.58;17.45;;;;;;;;;;5031098;28;20053;-65
2021/10/14 02:33:51;;;;;;;39.20;18.30;;;;;;;;;;5028066;28;20054;-65
2021/10/14 02:36:17;;;;;;;37.03;17.70;;;;;;;;;;5018972;28;20049;-65
2021/10/14 02:38:44;;;;;;;41.53;18.35;;;;;;;;;;5031808;28;20049;-65
2021/10/14 02:41:10;;;;;;;38.35;17.05;;;;;;;;;;5019356;28;20594;-65
2021/10/14 02:43:36;;;;;;;36.40;18.05;;;;;;;;;;5037824;28;20042;-65
2021/10/14 02:46:03;;;;;;;39.55;17.23;;;;;;;;;;5029757;28;20052;-64
2021/10/14 02:48:29;;;;;;;39.20;18.85;;;;;;;;;;5021801;28;20049;-64
2021/10/14 02:50:55;;;;;;;41.53;20.38;;;;;;;;;;5023858;28;20051;-64
2021/10/14 02:53:23;;;;;;;40.28;20.10;;;;;;;;;;5023315;28;20053;-64
2021/10/14 02:55:49;;;;;;;46.63;20.35;;;;;;;;;;5036425;28;20049;-64
2021/10/14 02:58:15;;;;;;;45.22;19.85;;;;;;;;;;5036389;28;20053;-65
2021/10/14 03:00:42;;;;;;;43.20;19.27;;;;;;;;;;5019856;28;20059;-64
2021/10/14 03:03:08;;;;;;;42.83;20.27;;;;;;;;;;5024797;28;20045;-65
2021/10/14 03:05:36;;;;;;;43.33;19.83;;;;;;;;;;5018486;28;20462;-64
2021/10/14 03:08:02;;;;;;;39.83;19.42;;;;;;;;;;5034338;28;20053;-64
2021/10/14 03:10:28;;;;;;;38.38;19.25;;;;;;;;;;5017877;28;20049;-64
2021/10/14 03:12:55;;;;;;;42.08;19.73;;;;;;;;;;5032745;28;20052;-64
2021/10/14 03:15:21;;;;;;;36.20;18.70;;;;;;;;;;5021082;28;20045;-64
2021/10/14 03:17:47;;;;;;;39.83;20.13;;;;;;;;;;5025701;28;20064;-65
2021/10/14 03:20:14;;;;;;;43.58;20.23;;;;;;;;;;5031966;28;20386;-64
2021/10/14 03:22:40;;;;;;;39.63;19.75;;;;;;;;;;5029706;28;20465;-64
2021/10/14 03:25:07;;;;;;;35.67;19.48;;;;;;;;;;5024096;28;20106;-64
2021/10/14 03:27:33;;;;;;;38.88;20.63;;;;;;;;;;5031321;28;20049;-65
2021/10/14 03:30:00;;;;;;;35.72;19.35;;;;;;;;;;5016233;28;20052;-64
2021/10/14 03:32:26;;;;;;;43.88;20.38;;;;;;;;;;5035651;28;20045;-64
2021/10/14 03:34:52;;;;;;;35.88;19.85;;;;;;;;;;5021972;28;20059;-64
2021/10/14 03:37:19;;;;;;;38.70;20.48;;;;;;;;;;5036905;28;20502;-64
2021/10/14 03:39:45;;;;;;;36.97;19.85;;;;;;;;;;5024215;28;20123;-64
2021/10/14 03:42:13;;;;;;;44.28;21.08;;;;;;;;;;5031657;28;20520;-64
2021/10/14 03:44:40;;;;;;;37.33;20.15;;;;;;;;;;5013713;28;20056;-64
2021/10/14 03:47:06;;;;;;;38.38;19.35;;;;;;;;;;5034756;28;20541;-65
2021/10/14 03:49:32;;;;;;;37.15;19.00;;;;;;;;;;5028026;28;20568;-64
2021/10/14 03:51:59;;;;;;;37.15;20.85;;;;;;;;;;5030491;28;20053;-64
2021/10/14 03:54:25;;;;;;;36.80;21.05;;;;;;;;;;5029014;28;20049;-64
2021/10/14 03:56:51;;;;;;;35.08;19.45;;;;;;;;;;5024481;28;20467;-64
2021/10/14 03:59:17;;;;;;;37.67;20.77;;;;;;;;;;5020447;28;20080;-65
2021/10/14 04:01:44;;;;;;;35.47;21.08;;;;;;;;;;5035030;28;20057;-64
2021/10/14 04:04:10;;;;;;;35.65;19.95;;;;;;;;;;5022839;28;20038;-65
2021/10/14 04:06:37;;;;;;;36.65;20.38;;;;;;;;;;5034893;28;20045;-64
2021/10/14 04:09:03;;;;;;;36.45;20.50;;;;;;;;;;5009388;28;20125;-65
2021/10/14 04:11:33;;;;;;;42.05;20.67;;;;;;;;;;5033367;28;20147;-64
2021/10/14 04:13:59;;;;;;;42.15;21.48;;;;;;;;;;5014495;28;20057;-64
2021/10/14 04:16:26;;;;;;;40.40;20.60;;;;;;;;;;5037867;28;20060;-65
2021/10/14 04:18:52;;;;;;;38.22;21.88;;;;;;;;;;5023609;28;20057;-64
2021/10/14 04:21:18;;;;;;;35.65;20.48;;;;;;;;;;5022232;28;20045;-64
2021/10/14 04:23:45;;;;;;;54.03;23.02;;;;;;;;;;5018469;28;20056;-64
2021/10/14 04:26:11;;;;;;;39.13;21.08;;;;;;;;;;5026378;28;20055;-65
2021/10/14 04:28:38;;;;;;;41.90;22.00;;;;;;;;;;5024814;28;20053;-65
2021/10/14 04:31:04;;;;;;;30.35;18.65;;;;;;;;;;5026943;28;20063;-65
2021/10/14 04:33:35;;;;;;;36.08;20.38;;;;;;;;;;5030893;28;20049;-65
2021/10/14 04:36:03;;;;;;;38.65;20.27;;;;;;;;;;5027094;28;20051;-65
2021/10/14 04:38:29;;;;;;;38.85;20.90;;;;;;;;;;5016930;28;20057;-65
2021/10/14 04:40:56;;;;;;;38.10;21.77;;;;;;;;;;5033917;28;20132;-65
2021/10/14 04:43:23;;;;;;;44.42;22.52;;;;;;;;;;5028346;28;20053;-65
2021/10/14 04:45:52;;;;;;;38.63;22.92;;;;;;;;;;5035085;28;20071;-65
2021/10/14 04:48:18;;;;;;;37.58;18.40;;;;;;;;;;5025404;28;20729;-65
2021/10/14 04:50:45;;;;;;;35.13;20.15;;;;;;;;;;5029979;28;20049;-65
2021/10/14 04:53:11;;;;;;;33.85;21.00;;;;;;;;;;5040111;28;20167;-65
2021/10/14 04:55:38;;;;;;;38.13;21.60;;;;;;;;;;5008119;28;20136;-65
2021/10/14 04:58:04;;;;;;;39.17;21.70;;;;;;;;;;5032137;28;20056;-64
2021/10/14 05:00:31;;;;;;;36.65;21.23;;;;;;;;;;5022689;28;20042;-65
2021/10/14 05:02:58;;;;;;;35.55;20.90;;;;;;;;;;5024301;28;20155;-65
2021/10/14 05:05:25;;;;;;;43.60;22.23;;;;;;;;;;5018573;28;21057;-65
2021/10/14 05:07:51;;;;;;;41.67;21.75;;;;;;;;;;5027978;28;20356;-65
2021/10/14 05:10:17;;;;;;;38.22;21.83;;;;;;;;;;5034831;28;20124;-65
2021/10/14 05:12:44;;;;;;;46.33;22.85;;;;;;;;;;5027019;28;20068;-65
2021/10/14 05:15:10;;;;;;;35.33;21.40;;;;;;;;;;5034330;28;20404;-65
2021/10/14 05:17:37;;;;;;;40.80;22.92;;;;;;;;;;5018312;28;20041;-64
2021/10/14 05:20:05;;;;;;;34.50;20.98;;;;;;;;;;5031647;28;20395;-65
2021/10/14 05:22:31;;;;;;;38.45;21.40;;;;;;;;;;5024220;28;20045;-65
2021/10/14 05:24:58;;;;;;;40.22;22.58;;;;;;;;;;5028693;28;20049;-65
2021/10/14 05:27:24;;;;;;;38.85;22.25;;;;;;;;;;5040620;28;20475;-65
2021/10/14 05:29:50;;;;;;;45.20;22.50;;;;;;;;;;5019102;28;20433;-65
2021/10/14 05:32:16;;;;;;;39.40;22.45;;;;;;;;;;5029310;28;20051;-65
2021/10/14 05:34:43;;;;;;;44.47;22.05;;;;;;;;;;5032232;28;20516;-65
2021/10/14 05:37:09;;;;;;;43.38;20.23;;;;;;;;;;5034664;28;20042;-65
2021/10/14 05:39:36;;;;;;;42.28;22.17;;;;;;;;;;5028086;28;20048;-64
2021/10/14 05:42:02;;;;;;;40.15;21.77;;;;;;;;;;5011506;28;20048;-64
2021/10/14 05:44:28;;;;;;;35.20;20.20;;;;;;;;;;5030906;28;20049;-65
2021/10/14 05:46:55;;;;;;;38.90;23.00;;;;;;;;;;5027546;28;20064;-65
2021/10/14 05:49:21;;;;;;;40.72;22.50;;;;;;;;;;5028014;28;20053;-64
2021/10/14 05:51:47;;;;;;;39.35;21.42;;;;;;;;;;5032375;28;20049;-65
2021/10/14 05:54:13;;;;;;;42.65;23.25;;;;;;;;;;5029518;28;20070;-65
2021/10/14 05:56:40;;;;;;;39.38;21.55;;;;;;;;;;5041255;28;20501;-65
2021/10/14 05:59:06;;;;;;;38.33;19.85;;;;;;;;;;5017713;28;20045;-65
2021/10/14 06:01:32;;;;;;;38.05;22.15;;;;;;;;;;5039412;28;20072;-65
2021/10/14 06:03:59;;;;;;;39.45;21.80;;;;;;;;;;5018156;28;20053;-65
2021/10/14 06:06:25;;;;;;;42.83;21.58;;;;;;;;;;5021111;28;20060;-65
2021/10/14 06:08:51;;;;;;;35.78;21.17;;;;;;;;;;5022277;28;20056;-65
2021/10/14 06:11:18;;;;;;;38.53;20.75;;;;;;;;;;5032183;28;21036;-65
2021/10/14 06:13:44;;;;;;;37.13;19.15;;;;;;;;;;5032759;28;20370;-65
2021/10/14 06:16:10;;;;;;;37.10;20.35;;;;;;;;;;5031677;28;20476;-65
2021/10/14 06:18:39;;;;;;;35.20;20.70;;;;;;;;;;5028511;28;20138;-65
2021/10/14 06:21:05;;;;;;;35.10;20.60;;;;;;;;;;5030563;28;20148;-65
2021/10/14 06:23:32;;;;;;;38.33;21.02;;;;;;;;;;5024115;28;20080;-65
2021/10/14 06:25:58;;;;;;;40.83;21.25;;;;;;;;;;5026646;28;20052;-64
2021/10/14 06:28:25;;;;;;;38.42;22.02;;;;;;;;;;5024149;28;20055;-65
2021/10/14 06:30:51;;;;;;;36.75;19.83;;;;;;;;;;5040736;28;20049;-65
2021/10/14 06:33:18;;;;;;;39.72;21.92;;;;;;;;;;5014765;28;20053;-65
2021/10/14 06:35:44;;;;;;;37.08;20.55;;;;;;;;;;5038951;28;20439;-65
2021/10/14 06:38:10;;;;;;;37.47;21.25;;;;;;;;;;5015632;28;20151;-65
2021/10/14 06:40:37;;;;;;;41.97;22.02;;;;;;;;;;5014764;28;20113;-65
2021/10/14 06:43:03;;;;;;;40.55;22.75;;;;;;;;;;5019585;28;20065;-65
2021/10/14 06:45:30;;;;;;;44.92;21.88;;;;;;;;;;5039805;28;20962;-65
2021/10/14 06:47:56;;;;;;;44.33;21.42;;;;;;;;;;5024195;28;20453;-65
2021/10/14 06:50:22;;;;;;;42.15;22.58;;;;;;;;;;5027953;28;20059;-65
2021/10/14 06:52:49;;;;;;;45.58;23.88;;;;;;;;;;5023507;28;20072;-65
2021/10/14 06:55:15;;;;;;;44.35;22.58;;;;;;;;;;5031537;28;20048;-65
2021/10/14 06:57:41;;;;;;;50.40;23.58;;;;;;;;;;5038631;28;20061;-65
2021/10/14 07:00:08;;;;;;;49.15;24.55;;;;;;;;;;5032935;28;20056;-65
2021/10/14 07:02:34;;;;;;;49.00;24.73;;;;;;;;;;5028705;28;20049;-65
2021/10/14 07:05:02;;;;;;;50.75;24.55;;;;;;;;;;5034569;28;20044;-65
2021/10/14 07:07:28;;;;;;;47.05;23.17;;;;;;;;;;5012667;28;20053;-65
2021/10/14 07:09:55;;;;;;;48.78;24.45;;;;;;;;;;5037408;28;20087;-65
2021/10/14 07:12:27;;;;;;;51.92;26.25;;;;;;;;;;5027612;28;20049;-65
2021/10/14 07:14:54;;;;;;;47.05;25.30;;;;;;;;;;5031610;28;20417;-65
2021/10/14 07:17:21;;;;;;;54.33;25.88;;;;;;;;;;5024317;28;20058;-65
2021/10/14 07:19:47;;;;;;;51.38;26.45;;;;;;;;;;5014922;28;20905;-65
2021/10/14 07:22:14;;;;;;;46.88;23.92;;;;;;;;;;5040140;28;20063;-65
2021/10/14 07:24:40;;;;;;;49.25;24.70;;;;;;;;;;5025708;28;20048;-65
2021/10/14 07:27:09;;;;;;;56.42;26.05;;;;;;;;;;5034236;28;20171;-65
2021/10/14 07:29:36;;;;;;;60.88;29.40;;;;;;;;;;5021337;28;20510;-66
2021/10/14 07:32:05;;;;;;;54.55;27.95;;;;;;;;;;5029046;28;20045;-66
2021/10/14 07:34:31;;;;;;;53.95;26.42;;;;;;;;;;5030705;28;20059;-65
2021/10/14 07:36:57;;;;;;;58.60;27.50;;;;;;;;;;5021485;28;20609;-65
2021/10/14 07:39:24;;;;;;;58.92;27.58;;;;;;;;;;5034632;28;20049;-65
2021/10/14 07:41:50;;;;;;;45.70;25.40;;;;;;;;;;5029829;28;20053;-66
2021/10/14 07:44:17;;;;;;;55.55;26.40;;;;;;;;;;5026026;28;20318;-65
2021/10/14 07:46:44;;;;;;;54.30;25.85;;;;;;;;;;5017745;28;20061;-65
2021/10/14 07:49:11;;;;;;;52.90;25.48;;;;;;;;;;5029198;28;20521;-65
2021/10/14 07:51:38;;;;;;;49.08;25.23;;;;;;;;;;5029024;28;20045;-66
2021/10/14 07:54:04;;;;;;;53.55;26.63;;;;;;;;;;5024845;28;20071;-66
2021/10/14 07:56:31;;;;;;;45.90;24.40;;;;;;;;;;5034037;28;20487;-65
2021/10/14 07:58:57;;;;;;;49.08;24.58;;;;;;;;;;5018463;28;20273;-66
2021/10/14 08:01:24;;;;;;;44.65;23.77;;;;;;;;;;5032057;28;20045;-65
2021/10/14 08:03:50;;;;;;;51.28;26.88;;;;;;;;;;5027753;28;20123;-66
2021/10/14 08:06:17;;;;;;;47.90;24.08;;;;;;;;;;5035610;28;20136;-65
2021/10/14 08:08:44;;;;;;;49.08;26.08;;;;;;;;;;5029494;28;20064;-65
2021/10/14 08:11:10;;;;;;;45.30;24.50;;;;;;;;;;5029747;28;20048;-65
2021/10/14 08:13:37;;;;;;;48.40;25.55;;;;;;;;;;5026294;28;20042;-65
2021/10/14 08:16:04;;;;;;;43.42;23.80;;;;;;;;;;5022615;28;20056;-66
2021/10/14 08:18:30;;;;;;;49.20;25.95;;;;;;;;;;5019078;28;20041;-65
2021/10/14 08:20:57;;;;;;;51.35;25.67;;;;;;;;;;5026829;28;20049;-65
2021/10/14 08:23:24;;;;;;;42.85;23.50;;;;;;;;;;5012686;28;20041;-64
2021/10/14 08:25:50;;;;;;;46.17;25.67;;;;;;;;;;5036432;28;20059;-65
2021/10/14 08:28:17;;;;;;;47.33;26.65;;;;;;;;;;5015156;28;20076;-65
2021/10/14 08:30:44;;;;;;;43.00;25.20;;;;;;;;;;5036358;28;20049;-65
2021/10/14 08:33:10;;;;;;;45.50;22.83;;;;;;;;;;5018901;28;20356;-65
2021/10/14 08:35:37;;;;;;;52.80;25.20;;;;;;;;;;5039726;28;20145;-65
2021/10/14 08:38:04;;;;;;;49.90;25.13;;;;;;;;;;5034081;28;20057;-65
2021/10/14 08:40:31;;;;;;;44.75;25.27;;;;;;;;;;5028840;28;20052;-65
2021/10/14 08:42:59;;;;;;;46.85;25.38;;;;;;;;;;5022751;28;21791;-65
2021/10/14 08:45:26;;;;;;;43.55;25.23;;;;;;;;;;5034215;28;20135;-65
2021/10/14 08:47:53;;;;;;;45.97;24.02;;;;;;;;;;5017033;28;20056;-65
2021/10/14 08:50:20;;;;;;;48.95;25.73;;;;;;;;;;5013662;28;20044;-65
2021/10/14 08:52:47;;;;;;;43.00;24.35;;;;;;;;;;5027392;28;20227;-65
2021/10/14 08:55:18;;;;;;;43.38;22.42;;;;;;;;;;5033512;28;20942;-66
2021/10/14 08:57:44;;;;;;;40.92;23.42;;;;;;;;;;5014371;28;20056;-66
2021/10/14 09:00:11;;;;;;;47.88;25.10;;;;;;;;;;5039864;28;20053;-66
2021/10/14 09:02:37;;;;;;;41.63;24.05;;;;;;;;;;5016736;28;20825;-65
2021/10/14 09:05:08;;;;;;;47.03;23.80;;;;;;;;;;5035999;28;20076;-66
2021/10/14 09:07:34;;;;;;;41.13;23.63;;;;;;;;;;5017480;28;20045;-63
2021/10/14 09:10:04;;;;;;;46.75;23.10;;;;;;;;;;5035588;28;20498;-64
2021/10/14 09:12:32;;;;;;;44.95;24.45;;;;;;;;;;5026956;28;20052;-64
2021/10/14 09:15:01;;;;;;;38.80;22.10;;;;;;;;;;5031803;28;20052;-64
2021/10/14 09:17:41;;;;;;;40.55;23.27;;;;;;;;;;5028093;28;20052;-65
2021/10/14 09:20:26;;;;;;;38.28;21.50;;;;;;;;;;5027282;28;20049;-65
2021/10/14 09:22:57;;;;;;;41.13;23.55;;;;;;;;;;5029573;28;20792;-65
2021/10/14 09:25:27;;;;;;;45.40;22.85;;;;;;;;;;5021967;28;20042;-65
2021/10/14 09:28:03;;;;;;;43.00;23.33;;;;;;;;;;5040432;28;20063;-65
2021/10/14 09:30:29;;;;;;;38.40;22.13;;;;;;;;;;5028436;28;20675;-64
2021/10/14 09:32:56;;;;;;;40.75;21.45;;;;;;;;;;5035259;28;20048;-64
2021/10/14 09:35:25;;;;;;;40.63;22.33;;;;;;;;;;5034939;28;20068;-65
2021/10/14 09:37:51;;;;;;;42.75;22.38;;;;;;;;;;5018995;28;20592;-64
2021/10/14 09:40:18;;;;;;;39.10;21.75;;;;;;;;;;5036939;28;20056;-65
2021/10/14 09:42:53;;;;;;;41.95;23.38;;;;;;;;;;5025931;28;20056;-65
2021/10/14 09:45:28;;;;;;;38.03;21.25;;;;;;;;;;5033224;28;20108;-64
2021/10/14 09:48:03;;;;;;;40.75;22.13;;;;;;;;;;5031667;28;20048;-65
2021/10/14 09:50:37;;;;;;;40.72;21.38;;;;;;;;;;5024688;28;20085;-65
2021/10/14 09:53:05;;;;;;;41.40;21.95;;;;;;;;;;5009160;28;20041;-65
2021/10/14 09:55:31;;;;;;;36.03;20.25;;;;;;;;;;5029699;28;20658;-65
2021/10/14 09:57:59;;;;;;;35.15;19.52;;;;;;;;;;5039669;28;20041;-65
2021/10/14 10:00:28;;;;;;;37.87;21.70;;;;;;;;;;5024540;28;20050;-65
2021/10/14 10:02:59;;;;;;;41.08;21.13;;;;;;;;;;5028086;28;20052;-64
2021/10/14 10:05:26;;;;;;;41.60;21.75;;;;;;;;;;5022392;28;20041;-65
2021/10/14 10:07:53;;;;;;;42.95;21.88;;;;;;;;;;5015825;28;20052;-64
2021/10/14 10:10:21;;;;;;;41.75;22.15;;;;;;;;;;5026250;28;20053;-65
2021/10/14 10:12:48;;;;;;;39.65;21.50;;;;;;;;;;5034061;28;20363;-65
2021/10/14 10:15:14;;;;;;;39.90;21.70;;;;;;;;;;5034185;28;20064;-65
2021/10/14 10:17:42;;;;;;;41.45;23.45;;;;;;;;;;5017007;28;20366;-65
2021/10/14 10:20:09;;;;;;;42.97;22.38;;;;;;;;;;5027897;28;20057;-65
2021/10/14 10:22:36;;;;;;;41.90;24.73;;;;;;;;;;5022777;28;20390;-65
2021/10/14 10:25:31;;;;;;;41.03;22.17;;;;;;;;;;5041532;28;20053;-65
2021/10/14 10:27:58;;;;;;;39.85;24.42;;;;;;;;;;5004105;28;20408;-65
2021/10/14 10:30:35;;;;;;;46.80;24.13;;;;;;;;;;5024272;28;20170;-65
2021/10/14 10:33:01;;;;;;;43.20;22.63;;;;;;;;;;5020971;28;20049;-65
2021/10/14 10:35:46;;;;;;;41.63;23.70;;;;;;;;;;5029249;28;20490;-65
2021/10/14 10:38:27;;;;;;;42.03;23.05;;;;;;;;;;5036171;28;20068;-65
2021/10/14 10:40:55;;;;;;;43.72;24.95;;;;;;;;;;5025636;28;20049;-65
2021/10/14 10:43:26;;;;;;;51.72;24.58;;;;;;;;;;5039226;28;20250;-65
2021/10/14 10:46:12;;;;;;;41.08;24.45;;;;;;;;;;5010472;28;20573;-65
2021/10/14 10:49:16;;;;;;;44.90;24.15;;;;;;;;;;5033324;28;20606;-65
2021/10/14 10:51:42;;;;;;;44.50;23.95;;;;;;;;;;5019512;28;20517;-65
2021/10/14 10:54:28;;;;;;;41.33;24.13;;;;;;;;;;5036077;28;20049;-65
2021/10/14 10:56:55;;;;;;;43.75;24.80;;;;;;;;;;5019655;28;20045;-65
2021/10/14 10:59:37;;;;;;;39.75;24.27;;;;;;;;;;5029092;28;20465;-65
2021/10/14 11:02:03;;;;;;;46.53;23.63;;;;;;;;;;5014518;28;20056;-65
2021/10/14 11:04:31;;;;;;;45.92;23.88;;;;;;;;;;5036188;28;20053;-65
2021/10/14 11:06:57;;;;;;;39.15;22.70;;;;;;;;;;5028910;28;20513;-65
2021/10/14 11:09:27;;;;;;;41.35;22.67;;;;;;;;;;5026827;28;20048;-65
2021/10/14 11:12:03;;;;;;;38.97;23.60;;;;;;;;;;5025794;28;20541;-65
2021/10/14 11:14:39;;;;;;;42.20;25.00;;;;;;;;;;5015924;28;20099;-65
2021/10/14 11:17:09;;;;;;;45.63;24.00;;;;;;;;;;5028215;28;20098;-65
2021/10/14 11:19:38;;;;;;;38.80;22.42;;;;;;;;;;5007703;28;20052;-65
2021/10/14 11:22:14;;;;;;;38.45;22.95;;;;;;;;;;5035269;28;20048;-65
2021/10/14 11:24:44;;;;;;;39.38;23.75;;;;;;;;;;5041146;28;20079;-65
2021/10/14 11:27:16;;;;;;;36.58;21.17;;;;;;;;;;5031333;28;20045;-65
2021/10/14 11:29:44;;;;;;;37.55;21.08;;;;;;;;;;5035347;28;20694;-65
2021/10/14 11:32:15;;;;;;;34.10;21.25;;;;;;;;;;5032851;28;20410;-65
2021/10/14 11:34:41;;;;;;;34.92;20.33;;;;;;;;;;5039317;28;20081;-65
2021/10/14 11:37:11;;;;;;;34.63;21.38;;;;;;;;;;5025688;28;20337;-65
2021/10/14 11:39:38;;;;;;;31.92;19.02;;;;;;;;;;5035730;28;20057;-65
2021/10/14 11:42:25;;;;;;;33.65;17.95;;;;;;;;;;5019175;28;20114;-65
2021/10/14 11:44:55;;;;;;;26.73;17.93;;;;;;;;;;5026303;28;20482;-65
2021/10/14 11:47:23;;;;;;;30.98;19.88;;;;;;;;;;5029698;28;20052;-65
2021/10/14 11:50:06;;;;;;;27.55;15.88;;;;;;;;;;5022445;28;20049;-65
2021/10/14 11:52:32;;;;;;;25.70;16.98;;;;;;;;;;5033501;28;20053;-65
2021/10/14 11:55:03;;;;;;;26.23;17.70;;;;;;;;;;4997576;28;20045;-65
2021/10/14 11:57:30;;;;;;;31.05;18.08;;;;;;;;;;5033320;28;20044;-65
2021/10/14 11:59:57;;;;;;;26.77;17.30;;;;;;;;;;5019463;28;20054;-65
2021/10/14 12:02:24;;;;;;;29.13;17.85;;;;;;;;;;5034669;28;20044;-65
2021/10/14 12:04:53;;;;;;;26.65;16.25;;;;;;;;;;5027209;28;20069;-65
2021/10/14 12:07:24;;;;;;;24.90;16.27;;;;;;;;;;5026226;28;20068;-65
2021/10/14 12:09:51;;;;;;;27.42;16.77;;;;;;;;;;5019704;28;20263;-65
2021/10/14 12:12:18;;;;;;;26.13;15.77;;;;;;;;;;5026792;28;20440;-65
2021/10/14 12:15:00;;;;;;;26.05;16.30;;;;;;;;;;5039901;28;20048;-65
2021/10/14 12:17:40;;;;;;;25.17;16.60;;;;;;;;;;5028659;28;20049;-66
2021/10/14 12:20:10;;;;;;;27.60;17.35;;;;;;;;;;5023709;28;20045;-64
2021/10/14 12:22:43;;;;;;;29.25;17.42;;;;;;;;;;5023598;28;20052;-65
2021/10/14 12:25:10;;;;;;;23.77;17.50;;;;;;;;;;5017069;28;20060;-65
2021/10/14 12:27:51;;;;;;;25.75;17.30;;;;;;;;;;5030335;28;20049;-65
2021/10/14 12:30:35;;;;;;;26.08;16.55;;;;;;;;;;5024454;28;20053;-65
2021/10/14 12:33:10;;;;;;;27.52;16.65;;;;;;;;;;5037647;28;20059;-65
2021/10/14 12:35:41;;;;;;;27.65;16.80;;;;;;;;;;5021062;28;20040;-64
2021/10/14 12:38:08;;;;;;;27.05;17.40;;;;;;;;;;5033945;28;20094;-64
2021/10/14 12:40:42;;;;;;;27.52;17.55;;;;;;;;;;5022499;28;20080;-64
2021/10/14 12:43:15;;;;;;;26.08;17.58;;;;;;;;;;5033874;28;20045;-64
2021/10/14 12:48:10;;;;;;;27.00;17.77;;;;;;;;;;5038394;28;20132;-64
2021/10/14 12:51:04;;;;;;;29.27;19.10;;;;;;;;;;5030989;28;20045;-64
2021/10/14 12:53:42;;;;;;;32.97;18.15;;;;;;;;;;5033673;28;20045;-65
2021/10/14 12:56:09;;;;;;;25.75;16.67;;;;;;;;;;5030595;28;20049;-65
2021/10/14 12:58:35;;;;;;;26.98;18.20;;;;;;;;;;5026191;28;20845;-65
2021/10/14 13:01:06;;;;;;;27.15;17.83;;;;;;;;;;5026635;28;20053;-65
2021/10/14 13:03:33;;;;;;;29.48;19.67;;;;;;;;;;5021828;28;20141;-65
2021/10/14 13:06:00;;;;;;;27.20;18.10;;;;;;;;;;5036297;28;20075;-65
2021/10/14 13:08:33;;;;;;;29.83;18.70;;;;;;;;;;5029488;28;20041;-65
2021/10/14 13:10:59;;;;;;;29.27;18.30;;;;;;;;;;5031672;28;20050;-65
2021/10/14 13:13:26;;;;;;;28.00;18.27;;;;;;;;;;5034127;28;20172;-65
2021/10/14 13:15:52;;;;;;;26.33;18.73;;;;;;;;;;5017384;28;20516;-65
2021/10/14 13:18:18;;;;;;;28.70;17.48;;;;;;;;;;5027633;28;20049;-65
2021/10/14 13:20:45;;;;;;;26.52;18.15;;;;;;;;;;5020074;28;20048;-65
2021/10/14 13:23:11;;;;;;;24.27;16.90;;;;;;;;;;5037644;28;20410;-65
2021/10/14 13:25:40;;;;;;;31.30;18.77;;;;;;;;;;5023275;28;20042;-65
2021/10/14 13:28:07;;;;;;;25.15;17.40;;;;;;;;;;5034934;28;20046;-64
2021/10/14 13:30:34;;;;;;;29.53;17.37;;;;;;;;;;5027695;28;20563;-65
2021/10/14 13:33:00;;;;;;;28.27;17.60;;;;;;;;;;5022912;28;20041;-65
2021/10/14 13:35:27;;;;;;;28.33;17.77;;;;;;;;;;5032849;28;20095;-65
2021/10/14 13:37:53;;;;;;;24.98;16.73;;;;;;;;;;5038393;28;20088;-65
2021/10/14 13:40:24;;;;;;;29.58;16.23;;;;;;;;;;5032144;28;20681;-64
2021/10/14 13:42:54;;;;;;;28.40;15.98;;;;;;;;;;5033894;28;20056;-64
2021/10/14 13:45:21;;;;;;;27.52;16.05;;;;;;;;;;5020148;28;20052;-65
2021/10/14 13:47:47;;;;;;;25.25;15.70;;;;;;;;;;5018779;28;20049;-65
2021/10/14 13:50:13;;;;;;;21.30;14.73;;;;;;;;;;5022365;28;20049;-64
2021/10/14 13:52:40;;;;;;;22.77;14.40;;;;;;;;;;5039924;28;20096;-64
2021/10/14 13:55:11;;;;;;;21.10;13.55;;;;;;;;;;5033534;28;20486;-65
2021/10/14 13:57:37;;;;;;;23.70;12.80;;;;;;;;;;5040888;28;20942;-64
2021/10/14 14:00:07;;;;;;;24.35;14.48;;;;;;;;;;5031649;28;20055;-64
2021/10/14 14:02:34;;;;;;;20.25;13.48;;;;;;;;;;5038040;28;20053;-65
2021/10/14 14:05:01;;;;;;;24.20;13.73;;;;;;;;;;5037834;28;20139;-64
2021/10/14 14:07:27;;;;;;;25.48;13.38;;;;;;;;;;5029482;28;20044;-65
2021/10/14 14:09:53;;;;;;;18.85;13.90;;;;;;;;;;5020822;28;20494;-64
2021/10/14 14:12:20;;;;;;;19.35;11.55;;;;;;;;;;5028460;28;20506;-65
2021/10/14 14:14:46;;;;;;;19.63;13.43;;;;;;;;;;5024132;28;20543;-65
2021/10/14 14:17:12;;;;;;;19.45;12.50;;;;;;;;;;5031549;28;20053;-65
2021/10/14 14:19:39;;;;;;;20.35;11.90;;;;;;;;;;5028690;28;20045;-65
2021/10/14 14:22:05;;;;;;;19.67;12.55;;;;;;;;;;5040536;28;20059;-65
2021/10/14 14:24:31;;;;;;;19.77;13.05;;;;;;;;;;5015663;28;20052;-65
2021/10/14 14:26:58;;;;;;;19.92;12.02;;;;;;;;;;5038355;28;20049;-65